sensor_id;sensor_type;location;lat;lon;timestamp;pressure;altitude;pressure_sealevel;temperature;humidity
22047;BME280;11187;49.412;20.956;2023-02-19T00:02:16;94605.28;;;4.33;100.00
22047;BME280;11187;49.412;20.956;2023-02-19T00:05:10;94607.00;;;4.30;100.00
22047;BME280;11187;49.412;20.956;2023-02-19T00:08:04;94609.53;;;4.31;100.00
22047;BME280;11187;49.412;20.956;2023-02-19T00:13:57;94613.78;;;4.34;100.00
22047;BME280;11187;49.412;20.956;2023-02-19T00:16:33;94625.56;;;4.33;100.00
22047;BME280;11187;49.412;20.956;2023-02-19T00:19:20;94619.69;;;4.30;100.00
22047;BME280;11187;49.412;20.956;2023-02-19T00:21:54;94616.28;;;4.32;100.00
22047;BME280;11187;49.412;20.956;2023-02-19T00:24:40;94610.38;;;4.29;100.00
22047;BME280;11187;49.412;20.956;2023-02-19T00:27:14;94621.38;;;4.26;100.00
22047;BME280;11187;49.412;20.956;2023-02-19T00:30:02;94612.91;;;4.24;100.00
22047;BME280;11187;49.412;20.956;2023-02-19T00:32:35;94607.84;;;4.24;100.00
22047;BME280;11187;49.412;20.956;2023-02-19T00:35:28;94614.63;;;4.25;100.00
22047;BME280;11187;49.412;20.956;2023-02-19T00:38:24;94616.31;;;4.23;100.00
22047;BME280;11187;49.412;20.956;2023-02-19T00:40:58;94607.03;;;4.25;100.00
22047;BME280;11187;49.412;20.956;2023-02-19T00:44:10;94616.31;;;4.25;100.00
22047;BME280;11187;49.412;20.956;2023-02-19T00:47:04;94606.19;;;4.22;100.00
22047;BME280;11187;49.412;20.956;2023-02-19T00:49:58;94602.81;;;4.21;100.00
22047;BME280;11187;49.412;20.956;2023-02-19T00:52:53;94605.34;;;4.19;100.00
22047;BME280;11187;49.412;20.956;2023-02-19T00:55:26;94599.44;;;4.21;100.00
22047;BME280;11187;49.412;20.956;2023-02-19T00:58:15;94603.63;;;4.22;100.00
22047;BME280;11187;49.412;20.956;2023-02-19T01:00:49;94596.91;;;4.19;100.00
22047;BME280;11187;49.412;20.956;2023-02-19T01:03:42;94591.81;;;4.19;100.00
22047;BME280;11187;49.412;20.956;2023-02-19T01:06:18;94579.16;;;4.21;100.00
22047;BME280;11187;49.412;20.956;2023-02-19T01:09:05;94582.53;;;4.19;100.00
22047;BME280;11187;49.412;20.956;2023-02-19T01:11:40;94584.22;;;4.17;100.00
22047;BME280;11187;49.412;20.956;2023-02-19T01:14:34;94585.91;;;4.17;100.00
22047;BME280;11187;49.412;20.956;2023-02-19T01:17:28;94574.94;;;4.15;100.00
22047;BME280;11187;49.412;20.956;2023-02-19T01:20:02;94569.91;;;4.13;100.00
22047;BME280;11187;49.412;20.956;2023-02-19T01:22:48;94576.66;;;4.11;100.00
22047;BME280;11187;49.412;20.956;2023-02-19T01:25:22;94572.41;;;4.15;100.00
22047;BME280;11187;49.412;20.956;2023-02-19T01:28:10;94587.59;;;4.15;100.00
22047;BME280;11187;49.412;20.956;2023-02-19T01:30:43;94572.41;;;4.16;100.00
22047;BME280;11187;49.412;20.956;2023-02-19T01:33:30;94582.53;;;4.19;100.00
22047;BME280;11187;49.412;20.956;2023-02-19T01:36:05;94579.16;;;4.21;100.00
22047;BME280;11187;49.412;20.956;2023-02-19T01:39:00;94571.56;;;4.17;100.00
22047;BME280;11187;49.412;20.956;2023-02-19T01:41:38;94586.78;;;4.16;100.00
22047;BME280;11187;49.412;20.956;2023-02-19T01:47:29;94586.78;;;4.08;100.00
22047;BME280;11187;49.412;20.956;2023-02-19T01:50:03;94595.22;;;4.06;100.00
22047;BME280;11187;49.412;20.956;2023-02-19T01:52:58;94595.22;;;4.00;100.00
22047;BME280;11187;49.412;20.956;2023-02-19T01:55:57;94589.34;;;3.96;100.00
22047;BME280;11187;49.412;20.956;2023-02-19T01:58:53;94587.66;;;3.92;100.00
22047;BME280;11187;49.412;20.956;2023-02-19T02:01:28;94580.91;;;3.92;100.00
22047;BME280;11187;49.412;20.956;2023-02-19T02:04:16;94576.69;;;3.90;100.00
22047;BME280;11187;49.412;20.956;2023-02-19T02:06:54;94571.63;;;3.91;100.00
22047;BME280;11187;49.412;20.956;2023-02-19T02:10:11;94550.53;;;3.91;100.00
22047;BME280;11187;49.412;20.956;2023-02-19T02:12:56;94558.09;;;3.92;100.00
22047;BME280;11187;49.412;20.956;2023-02-19T02:18:30;94563.19;;;3.94;100.00
22047;BME280;11187;49.412;20.956;2023-02-19T02:27:07;94569.91;;;4.00;100.00
22047;BME280;11187;49.412;20.956;2023-02-19T02:36:16;94562.34;;;3.93;100.00
22047;BME280;11187;49.412;20.956;2023-02-19T02:38:54;94565.72;;;3.94;100.00
22047;BME280;11187;49.412;20.956;2023-02-19T02:41:55;94566.56;;;3.91;100.00
22047;BME280;11187;49.412;20.956;2023-02-19T02:45:21;94547.16;;;3.83;100.00
22047;BME280;11187;49.412;20.956;2023-02-19T02:54:10;94545.47;;;3.82;100.00
22047;BME280;11187;49.412;20.956;2023-02-19T02:57:23;94542.09;;;3.84;100.00
22047;BME280;11187;49.412;20.956;2023-02-19T02:59:57;94553.91;;;3.85;100.00
22047;BME280;11187;49.412;20.956;2023-02-19T03:02:53;94553.88;;;3.84;100.00
22047;BME280;11187;49.412;20.956;2023-02-19T03:05:28;94552.22;;;3.83;100.00
22047;BME280;11187;49.412;20.956;2023-02-19T03:08:47;94554.75;;;3.83;100.00
22047;BME280;11187;49.412;20.956;2023-02-19T03:11:45;94558.97;;;3.79;100.00
22047;BME280;11187;49.412;20.956;2023-02-19T03:14:50;94564.03;;;3.76;100.00
22047;BME280;11187;49.412;20.956;2023-02-19T03:18:07;94562.38;;;3.75;100.00
22047;BME280;11187;49.412;20.956;2023-02-19T03:21:22;94568.25;;;3.69;100.00
22047;BME280;11187;49.412;20.956;2023-02-19T03:23:56;94574.19;;;3.67;100.00
22047;BME280;11187;49.412;20.956;2023-02-19T03:27:03;94578.38;;;3.63;100.00
22047;BME280;11187;49.412;20.956;2023-02-19T03:29:38;94575.03;;;3.57;100.00
22047;BME280;11187;49.412;20.956;2023-02-19T03:32:33;94580.94;;;3.51;100.00
22047;BME280;11187;49.412;20.956;2023-02-19T03:35:17;94584.31;;;3.48;100.00
22047;BME280;11187;49.412;20.956;2023-02-19T03:38:42;94579.25;;;3.45;100.00
22047;BME280;11187;49.412;20.956;2023-02-19T03:44:44;94591.06;;;3.43;100.00
22047;BME280;11187;49.412;20.956;2023-02-19T03:50:49;94599.50;;;3.44;100.00
22047;BME280;11187;49.412;20.956;2023-02-19T03:53:52;94613.81;;;3.42;100.00
22047;BME280;11187;49.412;20.956;2023-02-19T03:56:35;94613.00;;;3.41;100.00
22047;BME280;11187;49.412;20.956;2023-02-19T03:59:37;94600.31;;;3.40;100.00
22047;BME280;11187;49.412;20.956;2023-02-19T04:02:42;94607.91;;;3.33;100.00
22047;BME280;11187;49.412;20.956;2023-02-19T04:05:21;94607.06;;;3.34;100.00
22047;BME280;11187;49.412;20.956;2023-02-19T04:08:15;94620.56;;;3.32;100.00
22047;BME280;11187;49.412;20.956;2023-02-19T04:11:10;94618.88;;;3.31;100.00
22047;BME280;11187;49.412;20.956;2023-02-19T04:14:18;94617.19;;;3.28;100.00
22047;BME280;11187;49.412;20.956;2023-02-19T04:17:24;94612.13;;;3.25;100.00
22047;BME280;11187;49.412;20.956;2023-02-19T04:19:59;94617.16;;;3.27;100.00
22047;BME280;11187;49.412;20.956;2023-02-19T04:22:48;94612.97;;;3.27;100.00
22047;BME280;11187;49.412;20.956;2023-02-19T04:25:22;94613.81;;;3.26;100.00
22047;BME280;11187;49.412;20.956;2023-02-19T04:28:13;94612.13;;;3.25;100.00
22047;BME280;11187;49.412;20.956;2023-02-19T04:30:48;94607.91;;;3.26;100.00
22047;BME280;11187;49.412;20.956;2023-02-19T04:33:35;94610.41;;;3.24;100.00
22047;BME280;11187;49.412;20.956;2023-02-19T04:36:09;94613.81;;;3.25;100.00
22047;BME280;11187;49.412;20.956;2023-02-19T04:39:03;94609.59;;;3.24;100.00
22047;BME280;11187;49.412;20.956;2023-02-19T04:41:37;94608.75;;;3.25;100.00
22047;BME280;11187;49.412;20.956;2023-02-19T04:44:32;94612.13;;;3.25;100.00
22047;BME280;11187;49.412;20.956;2023-02-19T04:47:25;94613.78;;;3.22;100.00
22047;BME280;11187;49.412;20.956;2023-02-19T04:49:59;94612.94;;;3.17;100.00
22047;BME280;11187;49.412;20.956;2023-02-19T04:52:46;94618.00;;;3.13;100.00
22047;BME280;11187;49.412;20.956;2023-02-19T04:55:20;94620.53;;;3.09;100.00
22047;BME280;11187;49.412;20.956;2023-02-19T04:58:06;94608.72;;;3.08;100.00
22047;BME280;11187;49.412;20.956;2023-02-19T05:00:40;94597.75;;;3.06;100.00
22047;BME280;11187;49.412;20.956;2023-02-19T05:03:27;94597.72;;;3.04;100.00
22047;BME280;11187;49.412;20.956;2023-02-19T05:06:04;94595.22;;;3.03;100.00
22047;BME280;11187;49.412;20.956;2023-02-19T05:08:51;94596.91;;;3.02;100.00
22047;BME280;11187;49.412;20.956;2023-02-19T05:11:25;94591.00;;;3.02;100.00
22047;BME280;11187;49.412;20.956;2023-02-19T05:14:12;94592.69;;;3.01;100.00
22047;BME280;11187;49.412;20.956;2023-02-19T05:16:46;94578.34;;;3.02;100.00
22047;BME280;11187;49.412;20.956;2023-02-19T05:19:39;94572.44;;;3.01;100.00
22047;BME280;11187;49.412;20.956;2023-02-19T05:22:13;94577.50;;;3.01;100.00
22047;BME280;11187;49.412;20.956;2023-02-19T05:25:06;94574.97;;;2.98;100.00
22047;BME280;11187;49.412;20.956;2023-02-19T05:28:00;94569.94;;;2.98;100.00
22047;BME280;11187;49.412;20.956;2023-02-19T05:31:06;94564.03;;;2.98;100.00
22047;BME280;11187;49.412;20.956;2023-02-19T05:33:40;94566.53;;;2.96;100.00
22047;BME280;11187;49.412;20.956;2023-02-19T05:36:31;94568.25;;;2.96;100.00
22047;BME280;11187;49.412;20.956;2023-02-19T05:39:04;94558.94;;;2.95;100.00
22047;BME280;11187;49.412;20.956;2023-02-19T05:41:53;94561.47;;;2.95;100.00
22047;BME280;11187;49.412;20.956;2023-02-19T05:44:27;94562.34;;;2.93;100.00
22047;BME280;11187;49.412;20.956;2023-02-19T05:47:13;94559.78;;;2.92;100.00
22047;BME280;11187;49.412;20.956;2023-02-19T05:49:47;94564.03;;;2.93;100.00
22047;BME280;11187;49.412;20.956;2023-02-19T05:52:33;94563.16;;;2.89;100.00
22047;BME280;11187;49.412;20.956;2023-02-19T05:55:07;94571.59;;;2.90;100.00
22047;BME280;11187;49.412;20.956;2023-02-19T05:58:01;94576.63;;;2.90;100.00
22047;BME280;11187;49.412;20.956;2023-02-19T06:00:34;94570.75;;;2.91;100.00
22047;BME280;11187;49.412;20.956;2023-02-19T06:03:21;94580.03;;;2.89;100.00
22047;BME280;11187;49.412;20.956;2023-02-19T06:05:54;94569.91;;;2.87;100.00
22047;BME280;11187;49.412;20.956;2023-02-19T06:08:48;94565.69;;;2.85;100.00
22047;BME280;11187;49.412;20.956;2023-02-19T06:11:22;94561.47;;;2.85;100.00
22047;BME280;11187;49.412;20.956;2023-02-19T06:14:16;94564.84;;;2.84;100.00
22047;BME280;11187;49.412;20.956;2023-02-19T06:17:10;94560.63;;;2.85;100.00
22047;BME280;11187;49.412;20.956;2023-02-19T06:19:44;94558.06;;;2.83;100.00
22047;BME280;11187;49.412;20.956;2023-02-19T06:22:34;94546.28;;;2.82;100.00
22047;BME280;11187;49.412;20.956;2023-02-19T06:25:07;94542.94;;;2.82;100.00
22047;BME280;11187;49.412;20.956;2023-02-19T06:27:53;94549.66;;;2.81;100.00
22047;BME280;11187;49.412;20.956;2023-02-19T06:30:27;94535.34;;;2.82;100.00
22047;BME280;11187;49.412;20.956;2023-02-19T06:33:25;94542.06;;;2.81;100.00
22047;BME280;11187;49.412;20.956;2023-02-19T06:36:20;94542.91;;;2.80;100.00
22047;BME280;11187;49.412;20.956;2023-02-19T06:38:53;94542.06;;;2.81;100.00
22047;BME280;11187;49.412;20.956;2023-02-19T06:41:46;94532.78;;;2.79;100.00
22047;BME280;11187;49.412;20.956;2023-02-19T06:44:40;94541.22;;;2.79;100.00
22047;BME280;11187;49.412;20.956;2023-02-19T06:47:14;94537.03;;;2.80;100.00
22047;BME280;11187;49.412;20.956;2023-02-19T06:50:04;94526.06;;;2.81;100.00
22047;BME280;11187;49.412;20.956;2023-02-19T06:52:37;94531.13;;;2.82;100.00
22047;BME280;11187;49.412;20.956;2023-02-19T06:55:24;94517.63;;;2.83;100.00
22047;BME280;11187;49.412;20.956;2023-02-19T06:57:57;94529.44;;;2.86;100.00
22047;BME280;11187;49.412;20.956;2023-02-19T07:00:51;94527.75;;;2.88;100.00
22047;BME280;11187;49.412;20.956;2023-02-19T07:03:45;94529.47;;;2.89;100.00
22047;BME280;11187;49.412;20.956;2023-02-19T07:06:39;94526.94;;;2.89;100.00
22047;BME280;11187;49.412;20.956;2023-02-19T07:09:33;94526.94;;;2.89;100.00
22047;BME280;11187;49.412;20.956;2023-02-19T07:12:27;94521.03;;;2.87;100.00
22047;BME280;11187;49.412;20.956;2023-02-19T07:15:20;94514.25;;;2.90;100.00
22047;BME280;11187;49.412;20.956;2023-02-19T07:17:54;94514.28;;;2.97;100.00
22047;BME280;11187;49.412;20.956;2023-02-19T07:20:40;94509.22;;;3.00;100.00
22047;BME280;11187;49.412;20.956;2023-02-19T07:23:14;94504.19;;;3.03;100.00
22047;BME280;11187;49.412;20.956;2023-02-19T07:26:01;94510.06;;;3.02;100.00
22047;BME280;11187;49.412;20.956;2023-02-19T07:28:34;94501.66;;;3.03;100.00
22047;BME280;11187;49.412;20.956;2023-02-19T07:31:22;94502.47;;;3.06;100.00
22047;BME280;11187;49.412;20.956;2023-02-19T07:33:55;94492.38;;;3.11;100.00
22047;BME280;11187;49.412;20.956;2023-02-19T07:36:49;94487.31;;;3.19;100.00
22047;BME280;11187;49.412;20.956;2023-02-19T07:39:22;94491.53;;;3.24;100.00
22047;BME280;11187;49.412;20.956;2023-02-19T07:42:11;94489.84;;;3.28;100.00
22047;BME280;11187;49.412;20.956;2023-02-19T07:44:45;94496.56;;;3.33;100.00
22047;BME280;11187;49.412;20.956;2023-02-19T07:47:32;94493.22;;;3.39;100.00
22047;BME280;11187;49.412;20.956;2023-02-19T07:50:05;94480.56;;;3.45;100.00
22047;BME280;11187;49.412;20.956;2023-02-19T07:52:56;94485.59;;;3.51;100.00
22047;BME280;11187;49.412;20.956;2023-02-19T07:55:31;94483.06;;;3.59;100.00
22047;BME280;11187;49.412;20.956;2023-02-19T07:58:19;94481.34;;;3.67;100.00
22047;BME280;11187;49.412;20.956;2023-02-19T08:00:52;94482.19;;;3.74;100.00
22047;BME280;11187;49.412;20.956;2023-02-19T08:03:49;94485.56;;;3.82;100.00
22047;BME280;11187;49.412;20.956;2023-02-19T08:06:44;94488.06;;;3.90;100.00
22047;BME280;11187;49.412;20.956;2023-02-19T08:09:38;94491.41;;;3.98;100.00
22047;BME280;11187;49.412;20.956;2023-02-19T08:12:11;94494.75;;;4.06;100.00
22047;BME280;11187;49.412;20.956;2023-02-19T08:15:16;94470.25;;;4.14;100.00
22047;BME280;11187;49.412;20.956;2023-02-19T08:17:49;94473.56;;;4.24;100.00
22047;BME280;11187;49.412;20.956;2023-02-19T08:20:36;94465.94;;;4.35;100.00
22047;BME280;11187;49.412;20.956;2023-02-19T08:23:10;94465.84;;;4.47;100.00
22047;BME280;11187;49.412;20.956;2023-02-19T08:26:04;94459.03;;;4.58;100.00
22047;BME280;11187;49.412;20.956;2023-02-19T08:28:59;94465.75;;;4.70;100.00
22047;BME280;11187;49.412;20.956;2023-02-19T08:31:33;94464.75;;;4.88;100.00
22047;BME280;11187;49.412;20.956;2023-02-19T08:34:20;94456.16;;;5.06;100.00
22047;BME280;11187;49.412;20.956;2023-02-19T08:36:53;94461.09;;;5.26;100.00
22047;BME280;11187;49.412;20.956;2023-02-19T08:39:47;94467.75;;;5.41;100.00
22047;BME280;11187;49.412;20.956;2023-02-19T08:42:21;94457.50;;;5.50;100.00
22047;BME280;11187;49.412;20.956;2023-02-19T08:45:08;94454.84;;;5.61;100.00
22047;BME280;11187;49.412;20.956;2023-02-19T08:47:41;94450.53;;;5.71;100.00
22047;BME280;11187;49.412;20.956;2023-02-19T08:50:29;94451.22;;;5.83;100.00
22047;BME280;11187;49.412;20.956;2023-02-19T08:53:03;94455.31;;;6.00;100.00
22047;BME280;11187;49.412;20.956;2023-02-19T08:55:57;94461.06;;;6.16;100.00
22047;BME280;11187;49.412;20.956;2023-02-19T08:58:51;94458.41;;;6.23;100.00
22047;BME280;11187;49.412;20.956;2023-02-19T09:01:45;94461.69;;;6.33;100.00
22047;BME280;11187;49.412;20.956;2023-02-19T09:04:18;94456.66;;;6.30;100.00
22047;BME280;11187;49.412;20.956;2023-02-19T09:07:05;94456.72;;;6.24;100.00
22047;BME280;11187;49.412;20.956;2023-02-19T09:09:43;94463.47;;;6.26;100.00
22047;BME280;11187;49.412;20.956;2023-02-19T09:12:30;94469.47;;;6.21;100.00
22047;BME280;11187;49.412;20.956;2023-02-19T09:15:04;94464.50;;;6.12;100.00
22047;BME280;11187;49.412;20.956;2023-02-19T09:17:51;94456.16;;;6.02;100.00
22047;BME280;11187;49.412;20.956;2023-02-19T09:20:25;94461.22;;;6.02;100.00
22047;BME280;11187;49.412;20.956;2023-02-19T09:23:12;94458.75;;;5.97;100.00
22047;BME280;11187;49.412;20.956;2023-02-19T09:25:45;94467.22;;;5.90;100.00
22047;BME280;11187;49.412;20.956;2023-02-19T09:28:32;94474.13;;;5.79;100.00
22047;BME280;11187;49.412;20.956;2023-02-19T09:31:10;94473.38;;;5.71;100.00
22047;BME280;11187;49.412;20.956;2023-02-19T09:33:58;94464.16;;;5.62;100.00
22047;BME280;11187;49.412;20.956;2023-02-19T09:36:31;94472.69;;;5.55;100.00
22047;BME280;11187;49.412;20.956;2023-02-19T09:39:18;94460.88;;;5.51;100.00
22047;BME280;11187;49.412;20.956;2023-02-19T09:41:57;94470.28;;;5.39;100.00
22047;BME280;11187;49.412;20.956;2023-02-19T09:44:49;94469.41;;;5.40;100.00
22047;BME280;11187;49.412;20.956;2023-02-19T09:47:30;94460.09;;;5.44;100.00
22047;BME280;11187;49.412;20.956;2023-02-19T09:50:41;94460.91;;;5.48;100.00
22047;BME280;11187;49.412;20.956;2023-02-19T09:53:20;94460.88;;;5.52;100.00
22047;BME280;11187;49.412;20.956;2023-02-19T09:56:09;94451.53;;;5.51;100.00
22047;BME280;11187;49.412;20.956;2023-02-19T09:58:53;94453.28;;;5.48;100.00
22047;BME280;11187;49.412;20.956;2023-02-19T10:01:42;94442.28;;;5.47;100.00
22047;BME280;11187;49.412;20.956;2023-02-19T10:04:16;94451.63;;;5.45;100.00
22047;BME280;11187;49.412;20.956;2023-02-19T10:07:24;94445.78;;;5.35;100.00
22047;BME280;11187;49.412;20.956;2023-02-19T10:10:27;94446.69;;;5.27;100.00
22047;BME280;11187;49.412;20.956;2023-02-19T10:13:21;94430.72;;;5.17;100.00
22047;BME280;11187;49.412;20.956;2023-02-19T10:16:19;94441.78;;;5.11;100.00
22047;BME280;11187;49.412;20.956;2023-02-19T10:19:14;94439.28;;;5.05;100.00
22047;BME280;11187;49.412;20.956;2023-02-19T10:21:48;94433.38;;;5.01;100.00
22047;BME280;11187;49.412;20.956;2023-02-19T10:24:36;94434.25;;;5.00;100.00
22047;BME280;11187;49.412;20.956;2023-02-19T10:27:13;94424.97;;;4.98;100.00
22047;BME280;11187;49.412;20.956;2023-02-19T10:30:01;94416.47;;;5.00;100.00
22047;BME280;11187;49.412;20.956;2023-02-19T10:32:34;94423.19;;;5.08;100.00
22047;BME280;11187;49.412;20.956;2023-02-19T10:35:21;94422.31;;;5.13;100.00
22047;BME280;11187;49.412;20.956;2023-02-19T10:37:54;94416.31;;;5.19;100.00
22047;BME280;11187;49.412;20.956;2023-02-19T10:40:55;94417.94;;;5.26;100.00
22047;BME280;11187;49.412;20.956;2023-02-19T10:44:13;94418.72;;;5.34;100.00
22047;BME280;11187;49.412;20.956;2023-02-19T10:47:16;94414.47;;;5.35;100.00
22047;BME280;11187;49.412;20.956;2023-02-19T10:50:31;94420.44;;;5.34;100.00
22047;BME280;11187;49.412;20.956;2023-02-19T10:53:21;94418.78;;;5.28;100.00
22047;BME280;11187;49.412;20.956;2023-02-19T10:58:43;94420.59;;;5.12;100.00
22047;BME280;11187;49.412;20.956;2023-02-19T11:01:30;94433.38;;;5.05;100.00
22047;BME280;11187;49.412;20.956;2023-02-19T11:04:15;94428.34;;;4.97;100.00
22047;BME280;11187;49.412;20.956;2023-02-19T11:07:16;94423.34;;;4.88;100.00
22047;BME280;11187;49.412;20.956;2023-02-19T11:09:50;94422.53;;;4.82;100.00
22047;BME280;11187;49.412;20.956;2023-02-19T11:12:37;94414.97;;;4.78;100.00
22047;BME280;11187;49.412;20.956;2023-02-19T11:15:27;94422.56;;;4.76;100.00
22047;BME280;11187;49.412;20.956;2023-02-19T11:18:24;94428.47;;;4.80;100.00
22047;BME280;11187;49.412;20.956;2023-02-19T11:21:00;94425.94;;;4.80;100.00
22047;BME280;11187;49.412;20.956;2023-02-19T11:23:59;94429.34;;;4.77;100.00
22047;BME280;11187;49.412;20.956;2023-02-19T11:26:53;94423.44;;;4.74;100.00
22047;BME280;11187;49.412;20.956;2023-02-19T11:29:27;94426.84;;;4.70;100.00
22047;BME280;11187;49.412;20.956;2023-02-19T11:35:13;94424.38;;;4.60;100.00
22047;BME280;11187;49.412;20.956;2023-02-19T11:38:11;94418.50;;;4.54;100.00
22047;BME280;11187;49.412;20.956;2023-02-19T11:41:08;94425.25;;;4.55;100.00
22047;BME280;11187;49.412;20.956;2023-02-19T11:44:02;94425.25;;;4.55;100.00
22047;BME280;11187;49.412;20.956;2023-02-19T11:53:47;94431.91;;;4.70;100.00
22047;BME280;11187;49.412;20.956;2023-02-19T11:56:54;94432.78;;;4.69;100.00
22047;BME280;11187;49.412;20.956;2023-02-19T12:00:09;94435.31;;;4.69;100.00
22047;BME280;11187;49.412;20.956;2023-02-19T12:02:58;94429.38;;;4.71;100.00
22047;BME280;11187;49.412;20.956;2023-02-19T12:40:49;94461.09;;;5.26;100.00
22047;BME280;11187;49.412;20.956;2023-02-19T12:43:36;94460.22;;;5.30;100.00
22047;BME280;11187;49.412;20.956;2023-02-19T12:46:39;94470.34;;;5.30;100.00
22047;BME280;11187;49.412;20.956;2023-02-19T12:49:29;94472.06;;;5.30;100.00
22047;BME280;11187;49.412;20.956;2023-02-19T12:52:22;94475.44;;;5.29;100.00
22047;BME280;11187;49.412;20.956;2023-02-19T12:55:02;94483.94;;;5.26;100.00
22047;BME280;11187;49.412;20.956;2023-02-19T12:57:54;94477.22;;;5.20;100.00
22047;BME280;11187;49.412;20.956;2023-02-19T13:00:44;94490.81;;;5.13;100.00
22047;BME280;11187;49.412;20.956;2023-02-19T13:03:47;94499.25;;;5.11;100.00
22047;BME280;11187;49.412;20.956;2023-02-19T13:06:56;94515.34;;;5.08;100.00
22047;BME280;11187;49.412;20.956;2023-02-19T13:10:04;94501.88;;;5.01;100.00
22047;BME280;11187;49.412;20.956;2023-02-19T13:13:06;94510.38;;;4.94;100.00
22047;BME280;11187;49.412;20.956;2023-02-19T13:15:51;94512.06;;;4.92;100.00
22047;BME280;11187;49.412;20.956;2023-02-19T13:21:16;94503.59;;;4.96;100.00
22047;BME280;11187;49.412;20.956;2023-02-19T13:24:33;94516.25;;;4.99;100.00
22047;BME280;11187;49.412;20.956;2023-02-19T13:30:41;94518.78;;;5.02;100.00
22047;BME280;11187;49.412;20.956;2023-02-19T13:33:44;94523.81;;;5.06;100.00
22047;BME280;11187;49.412;20.956;2023-02-19T13:36:22;94535.69;;;5.03;100.00
22047;BME280;11187;49.412;20.956;2023-02-19T13:39:19;94538.28;;;4.94;100.00
22047;BME280;11187;49.412;20.956;2023-02-19T13:41:57;94545.91;;;4.90;100.00
22047;BME280;11187;49.412;20.956;2023-02-19T13:44:46;94551.84;;;4.87;100.00
22047;BME280;11187;49.412;20.956;2023-02-19T13:50:34;94552.75;;;4.72;100.00
22047;BME280;11187;49.412;20.956;2023-02-19T13:56:37;94562.13;;;4.56;100.00
22047;BME280;11187;49.412;20.956;2023-02-19T13:59:36;94556.28;;;4.44;100.00
22047;BME280;11187;49.412;20.956;2023-02-19T14:02:32;94560.53;;;4.37;100.00
22047;BME280;11187;49.412;20.956;2023-02-19T14:06:06;94563.91;;;4.31;100.00
22047;BME280;11187;49.412;20.956;2023-02-19T14:09:00;94574.91;;;4.32;100.00
22047;BME280;11187;49.412;20.956;2023-02-19T14:17:56;94591.00;;;4.12;100.00
22047;BME280;11187;49.412;20.956;2023-02-19T14:20:44;94599.47;;;4.02;100.00
22047;BME280;11187;49.412;20.956;2023-02-19T14:23:23;94590.19;;;3.90;100.00
22047;BME280;11187;49.412;20.956;2023-02-19T14:26:14;94595.25;;;3.81;100.00
22047;BME280;11187;49.412;20.956;2023-02-19T14:28:50;94602.03;;;3.73;100.00
22047;BME280;11187;49.412;20.956;2023-02-19T14:31:38;94601.19;;;3.69;100.00
22047;BME280;11187;49.412;20.956;2023-02-19T14:34:15;94602.84;;;3.63;100.00
22047;BME280;11187;49.412;20.956;2023-02-19T14:37:18;94605.38;;;3.53;100.00
22047;BME280;11187;49.412;20.956;2023-02-19T14:39:54;94597.78;;;3.44;100.00
22047;BME280;11187;49.412;20.956;2023-02-19T14:42:42;94606.22;;;3.35;100.00
22047;BME280;11187;49.412;20.956;2023-02-19T14:45:17;94612.97;;;3.30;100.00
22047;BME280;11187;49.412;20.956;2023-02-19T14:48:17;94623.06;;;3.18;100.00
22047;BME280;11187;49.412;20.956;2023-02-19T14:51:27;94627.28;;;3.14;100.00
22047;BME280;11187;49.412;20.956;2023-02-19T14:54:15;94619.66;;;3.13;100.00
22047;BME280;11187;49.412;20.956;2023-02-19T14:57:09;94617.13;;;3.08;100.00
22047;BME280;11187;49.412;20.956;2023-02-19T15:00:18;94623.88;;;3.05;100.00
22047;BME280;11187;49.412;20.956;2023-02-19T15:03:28;94633.97;;;2.99;100.00
22047;BME280;11187;49.412;20.956;2023-02-19T15:06:06;94634.81;;;2.93;100.00
22047;BME280;11187;49.412;20.956;2023-02-19T15:09:04;94629.72;;;2.90;100.00
22047;BME280;11187;49.412;20.956;2023-02-19T15:12:01;94632.25;;;2.82;100.00
22047;BME280;11187;49.412;20.956;2023-02-19T15:14:58;94642.31;;;2.75;100.00
22047;BME280;11187;49.412;20.956;2023-02-19T15:17:37;94638.97;;;2.72;100.00
22047;BME280;11187;49.412;20.956;2023-02-19T15:20:35;94631.34;;;2.69;100.00
22047;BME280;11187;49.412;20.956;2023-02-19T15:23:31;94635.53;;;2.67;100.00
22047;BME280;11187;49.412;20.956;2023-02-19T15:26:35;94642.28;;;2.65;100.00
22047;BME280;11187;49.412;20.956;2023-02-19T15:29:30;94645.63;;;2.63;100.00
22047;BME280;11187;49.412;20.956;2023-02-19T15:32:16;94645.63;;;2.55;100.00
22047;BME280;11187;49.412;20.956;2023-02-19T15:35:03;94665.78;;;2.46;100.00
22047;BME280;11187;49.412;20.956;2023-02-19T15:37:37;94675.88;;;2.44;100.00
22047;BME280;11187;49.412;20.956;2023-02-19T15:40:29;94678.38;;;2.40;100.00
22047;BME280;11187;49.412;20.956;2023-02-19T15:43:03;94685.94;;;2.40;100.00
22047;BME280;11187;49.412;20.956;2023-02-19T15:46:04;94691.81;;;2.36;100.00
22047;BME280;11187;49.412;20.956;2023-02-19T15:48:50;94685.91;;;2.30;100.00
22047;BME280;11187;49.412;20.956;2023-02-19T15:51:51;94685.88;;;2.27;100.00
22047;BME280;11187;49.412;20.956;2023-02-19T15:54:30;94683.31;;;2.24;100.00
22047;BME280;11187;49.412;20.956;2023-02-19T15:57:23;94679.09;;;2.19;100.00
22047;BME280;11187;49.412;20.956;2023-02-19T16:00:18;94697.56;;;2.13;100.00
22047;BME280;11187;49.412;20.956;2023-02-19T16:03:19;94708.38;;;2.00;100.00
22047;BME280;11187;49.412;20.956;2023-02-19T16:06:16;94693.16;;;1.87;100.00
22047;BME280;11187;49.412;20.956;2023-02-19T16:09:04;94720.88;;;1.83;100.00
22047;BME280;11187;49.412;20.956;2023-02-19T16:11:54;94725.91;;;1.80;100.00
22047;BME280;11187;49.412;20.956;2023-02-19T16:17:22;94730.00;;;1.70;100.00
22047;BME280;11187;49.412;20.956;2023-02-19T16:20:03;94743.47;;;1.69;100.00
22047;BME280;11187;49.412;20.956;2023-02-19T16:23:03;94767.84;;;1.67;100.00